Time;durP1;ratioP1;P1;durP2;ratioP2;P2;SDS_P1;SDS_P2;PMS_P1;PMS_P2;Temp;Humidity;BMP_temperature;BMP_pressure;BME280_temperature;BME280_humidity;BME280_pressure;Samples;Min_cycle;Max_cycle;Signal;HPM_P1;HPM_P2
2022/06/27 00:00:28;;;;;;;6.68;5.93;;;;;;;17.75;84.85;98278.91;4139585;28;20478;-72
2022/06/27 00:02:29;;;;;;;6.10;5.32;;;;;;;17.75;84.60;98278.13;4139680;28;20045;-71
2022/06/27 00:04:29;;;;;;;5.90;5.10;;;;;;;17.76;83.64;98271.31;4138832;28;20034;-71
2022/06/27 00:06:29;;;;;;;7.15;5.88;;;;;;;17.72;84.31;98271.41;4139645;28;20077;-71
2022/06/27 00:08:30;;;;;;;5.70;5.20;;;;;;;17.74;84.17;98274.53;4138480;28;20080;-71
2022/06/27 00:10:30;;;;;;;6.40;4.95;;;;;;;17.70;83.88;98276.63;4139692;28;20022;-71
2022/06/27 00:12:31;;;;;;;10.38;4.97;;;;;;;17.66;84.04;98281.47;4138938;28;20454;-71
2022/06/27 00:14:32;;;;;;;5.55;5.05;;;;;;;17.60;84.48;98289.56;4139892;28;20033;-72
2022/06/27 00:16:32;;;;;;;5.63;4.70;;;;;;;17.52;84.54;98285.34;4139587;28;20117;-71
2022/06/27 00:18:33;;;;;;;7.25;5.00;;;;;;;17.48;84.38;98297.81;4138220;28;20278;-71
2022/06/27 00:20:33;;;;;;;5.82;4.82;;;;;;;17.42;84.42;98292.72;4139685;28;20115;-71
2022/06/27 00:22:34;;;;;;;6.72;4.80;;;;;;;17.30;84.49;98298.94;4138293;28;20466;-71
2022/06/27 00:24:34;;;;;;;6.38;5.13;;;;;;;17.27;84.48;98301.78;4138589;28;20029;-71
2022/06/27 00:26:35;;;;;;;5.68;4.90;;;;;;;17.20;84.91;98311.09;4139225;28;20041;-72
2022/06/27 00:28:36;;;;;;;5.40;4.90;;;;;;;17.18;84.92;98307.94;4137295;28;20466;-71
2022/06/27 00:30:36;;;;;;;5.53;4.93;;;;;;;17.10;85.17;98312.06;4139346;28;20073;-71
2022/06/27 00:32:37;;;;;;;6.15;5.45;;;;;;;17.09;85.83;98327.28;4137931;28;20037;-72
2022/06/27 00:34:38;;;;;;;5.30;4.80;;;;;;;17.08;86.05;98325.69;4139137;28;20041;-71
2022/06/27 00:36:38;;;;;;;5.72;5.18;;;;;;;17.02;85.82;98319.00;4135343;28;20201;-71
2022/06/27 00:38:40;;;;;;;6.22;5.38;;;;;;;16.96;85.89;98321.47;4137375;28;20026;-71
2022/06/27 00:40:41;;;;;;;5.85;5.35;;;;;;;16.88;86.61;98317.25;4138002;28;20453;-72
2022/06/27 00:42:42;;;;;;;6.40;5.55;;;;;;;16.82;87.27;98325.31;4138058;28;20042;-72
2022/06/27 00:44:43;;;;;;;5.38;4.88;;;;;;;16.83;87.11;98317.72;4139374;28;20152;-72
2022/06/27 00:46:44;;;;;;;5.63;5.13;;;;;;;16.85;86.27;98323.66;4137265;28;20084;-71
2022/06/27 00:48:44;;;;;;;6.25;5.65;;;;;;;16.82;87.69;98327.31;4138544;28;20034;-71
2022/06/27 00:50:45;;;;;;;7.13;6.03;;;;;;;16.79;88.27;98326.16;4138838;28;20030;-71
2022/06/27 00:52:45;;;;;;;6.22;5.63;;;;;;;16.74;88.82;98323.84;4139212;28;20034;-71
2022/06/27 00:54:48;;;;;;;6.35;5.60;;;;;;;16.73;88.74;98332.66;4139179;28;20030;-72
2022/06/27 00:56:49;;;;;;;5.85;5.28;;;;;;;16.73;88.95;98336.25;4139389;28;20198;-71
2022/06/27 00:58:50;;;;;;;6.80;6.10;;;;;;;16.71;88.80;98333.06;4137300;28;20537;-72
2022/06/27 01:00:50;;;;;;;6.78;5.82;;;;;;;16.72;88.96;98340.25;4137075;28;20034;-72
2022/06/27 01:02:51;;;;;;;6.78;5.78;;;;;;;16.74;88.28;98334.22;4139424;28;20026;-71
2022/06/27 01:04:51;;;;;;;6.68;6.07;;;;;;;16.78;86.46;98337.75;4137677;28;20034;-71
2022/06/27 01:06:52;;;;;;;6.13;5.63;;;;;;;16.76;87.74;98338.19;4137349;28;20601;-72
2022/06/27 01:08:52;;;;;;;7.80;6.40;;;;;;;16.72;88.83;98345.84;4137757;28;20026;-72
2022/06/27 01:10:53;;;;;;;9.02;5.40;;;;;;;16.71;88.76;98343.44;4138744;28;20034;-71
2022/06/27 01:12:55;;;;;;;6.07;5.47;;;;;;;16.66;88.65;98344.69;4139150;28;20056;-71
2022/06/27 01:14:56;;;;;;;5.78;5.28;;;;;;;16.69;86.47;98349.44;4137721;28;20116;-71
2022/06/27 01:16:57;;;;;;;6.10;5.60;;;;;;;16.83;84.41;98342.88;4139120;28;20505;-71
2022/06/27 01:18:58;;;;;;;5.88;5.38;;;;;;;16.90;84.19;98339.97;4136000;28;20367;-71
2022/06/27 01:20:59;;;;;;;6.57;5.95;;;;;;;16.92;85.01;98334.72;4138363;28;20084;-71
2022/06/27 01:23:00;;;;;;;6.15;5.60;;;;;;;16.92;84.77;98333.94;4138471;28;20037;-71
2022/06/27 01:25:01;;;;;;;6.82;5.57;;;;;;;16.97;82.92;98339.06;4138027;28;20042;-71
2022/06/27 01:27:03;;;;;;;5.97;5.40;;;;;;;16.93;84.56;98330.72;4137652;28;20366;-71
2022/06/27 01:29:04;;;;;;;6.20;5.70;;;;;;;16.91;84.89;98332.38;4137001;28;20034;-71
2022/06/27 01:31:05;;;;;;;6.40;5.80;;;;;;;16.90;84.22;98333.59;4138046;28;20022;-71
2022/06/27 01:33:05;;;;;;;5.90;5.30;;;;;;;16.94;84.84;98337.09;4138754;28;20092;-71
2022/06/27 01:35:06;;;;;;;7.60;5.43;;;;;;;16.95;84.16;98331.09;4138117;28;20044;-71
2022/06/27 01:37:06;;;;;;;5.95;5.45;;;;;;;16.90;84.89;98334.38;4138548;28;20423;-71
2022/06/27 01:39:09;;;;;;;7.50;5.82;;;;;;;16.85;85.39;98341.22;4136253;28;20344;-72
2022/06/27 01:41:09;;;;;;;;;;;;;;;16.77;85.68;98347.34;4136764;28;20680;-71
2022/06/27 01:43:09;;;;;;;6.13;5.45;;;;;;;16.76;84.94;98343.75;4138078;28;19951;-72
2022/06/27 01:45:10;;;;;;;5.65;4.88;;;;;;;16.71;85.06;98349.03;4138389;28;20355;-71
2022/06/27 01:47:11;;;;;;;8.25;5.35;;;;;;;16.70;84.71;98348.25;4138241;28;20029;-71
2022/06/27 01:49:14;;;;;;;6.28;5.68;;;;;;;16.66;85.32;98349.50;4136507;28;20790;-71
2022/06/27 01:51:14;;;;;;;6.15;5.47;;;;;;;16.57;86.74;98338.84;4137889;28;20194;-71
2022/06/27 01:53:15;;;;;;;6.43;5.82;;;;;;;16.49;87.50;98335.38;4138714;28;20478;-71
2022/06/27 01:55:19;;;;;;;7.38;5.50;;;;;;;16.42;87.86;98338.25;4138238;28;20092;-71
2022/06/27 01:57:19;;;;;;;5.93;5.40;;;;;;;16.38;87.19;98337.50;4137776;28;20168;-70
2022/06/27 01:59:25;;;;;;;7.50;6.60;;;;;;;16.39;89.32;98339.09;4137540;28;20508;-71
2022/06/27 02:01:26;;;;;;;6.25;5.65;;;;;;;16.33;89.94;98337.19;4137091;28;20034;-71
2022/06/27 02:03:27;;;;;;;7.00;6.38;;;;;;;16.33;89.27;98340.78;4137893;28;20033;-71
2022/06/27 02:05:27;;;;;;;12.13;6.25;;;;;;;16.34;88.30;98336.78;4137045;28;20397;-71
2022/06/27 02:07:28;;;;;;;7.18;6.13;;;;;;;16.41;87.40;98338.69;4137207;28;20304;-71
2022/06/27 02:09:28;;;;;;;7.18;6.18;;;;;;;16.48;86.73;98325.41;4136805;28;20034;-71
2022/06/27 02:11:30;;;;;;;6.38;5.78;;;;;;;16.50;86.64;98319.41;4136684;28;20077;-71
2022/06/27 02:13:30;;;;;;;7.23;6.53;;;;;;;16.57;86.16;98333.25;4137182;28;20469;-71
2022/06/27 02:15:31;;;;;;;8.57;6.07;;;;;;;16.52;86.51;98322.56;4136133;28;20060;-71
2022/06/27 02:17:32;;;;;;;6.80;6.10;;;;;;;16.51;87.26;98323.78;4137428;28;20041;-71
2022/06/27 02:19:32;;;;;;;6.65;5.90;;;;;;;16.52;86.64;98323.34;4137042;28;20069;-71
2022/06/27 02:21:33;;;;;;;7.22;6.28;;;;;;;16.51;86.26;98318.97;4136334;28;20026;-71
2022/06/27 02:23:33;;;;;;;8.07;6.72;;;;;;;16.47;87.28;98312.66;4137630;28;20022;-71
2022/06/27 02:25:34;;;;;;;6.82;6.22;;;;;;;16.44;87.98;98315.50;4136674;28;20056;-71
2022/06/27 02:27:35;;;;;;;7.10;6.40;;;;;;;16.38;87.71;98323.53;4135449;28;20032;-71
2022/06/27 02:29:37;;;;;;;7.73;6.53;;;;;;;16.34;88.61;98327.63;4135760;28;20041;-70
2022/06/27 02:31:49;;;;;;;7.80;6.63;;;;;;;16.37;85.92;98329.56;4138233;28;20032;-71
2022/06/27 02:33:51;;;;;;;7.40;6.35;;;;;;;16.39;86.33;98327.94;4136911;28;20090;-71
2022/06/27 02:35:53;;;;;;;12.88;7.22;;;;;;;16.36;88.31;98328.75;4137670;28;20068;-71
2022/06/27 02:37:53;;;;;;;20.13;7.35;;;;;;;16.32;89.30;98330.03;4136869;28;20045;-71
2022/06/27 02:39:55;;;;;;;22.83;8.75;;;;;;;16.28;89.45;98328.06;4136807;28;20478;-71
2022/06/27 02:41:58;;;;;;;15.70;6.80;;;;;;;16.29;87.65;98340.81;4136222;28;20025;-71
2022/06/27 02:44:07;;;;;;;22.75;7.85;;;;;;;16.37;86.17;98332.34;4136567;28;20038;-71
2022/06/27 02:46:08;;;;;;;15.27;6.85;;;;;;;16.45;85.31;98331.81;4133211;28;20038;-71
2022/06/27 02:48:12;;;;;;;15.52;7.32;;;;;;;16.51;85.14;98334.94;4135736;28;20049;-71
2022/06/27 02:50:12;;;;;;;17.50;7.53;;;;;;;16.60;83.33;98329.63;4135528;28;20194;-71
2022/06/27 02:52:19;;;;;;;14.55;6.63;;;;;;;16.72;83.39;98328.28;4137215;28;20258;-71
2022/06/27 02:54:26;;;;;;;8.02;6.00;;;;;;;16.80;83.90;98326.97;4136252;28;20378;-71
2022/06/27 02:56:27;;;;;;;14.35;6.75;;;;;;;16.78;84.92;98326.56;4135319;28;20227;-71
2022/06/27 02:58:52;;;;;;;12.88;6.25;;;;;;;16.68;85.80;98331.09;4135544;28;20116;-71
2022/06/27 03:00:54;;;;;;;11.75;6.20;;;;;;;16.58;86.42;98323.66;4134735;28;20474;-71
2022/06/27 03:02:56;;;;;;;11.13;7.20;;;;;;;16.49;88.50;98320.63;4136118;28;20442;-71
2022/06/27 03:04:57;;;;;;;9.75;6.72;;;;;;;16.42;87.86;98323.50;4133857;28;20030;-71
2022/06/27 03:06:57;;;;;;;8.20;6.18;;;;;;;16.47;85.63;98314.66;4134083;28;20717;-71
2022/06/27 03:08:57;;;;;;;7.93;6.60;;;;;;;16.56;85.12;98326.09;4135268;28;20105;-71
2022/06/27 03:10:58;;;;;;;9.98;6.72;;;;;;;16.60;86.24;98324.03;4133874;28;20100;-71
2022/06/27 03:12:58;;;;;;;9.05;6.40;;;;;;;16.61;86.94;98325.59;4134285;28;20083;-71
2022/06/27 03:14:58;;;;;;;9.10;6.60;;;;;;;16.59;86.92;98328.03;4136650;28;20040;-71
2022/06/27 03:16:59;;;;;;;6.75;6.05;;;;;;;16.65;84.83;98326.34;4134454;28;20026;-71
2022/06/27 03:18:59;;;;;;;14.82;7.13;;;;;;;16.75;84.56;98322.63;4133852;28;20034;-71
2022/06/27 03:21:00;;;;;;;7.82;6.75;;;;;;;16.82;85.96;98322.53;4133765;28;20141;-71
2022/06/27 03:23:00;;;;;;;10.52;7.13;;;;;;;16.80;86.22;98324.16;4132937;28;20033;-71
2022/06/27 03:25:01;;;;;;;7.22;6.35;;;;;;;16.78;85.04;98326.56;4134422;28;20104;-71
2022/06/27 03:27:01;;;;;;;9.95;7.38;;;;;;;16.72;86.92;98328.28;4133818;28;20367;-71
2022/06/27 03:29:03;;;;;;;8.20;7.40;;;;;;;16.63;87.48;98344.72;4136293;28;20081;-71
2022/06/27 03:31:03;;;;;;;9.23;7.15;;;;;;;16.59;86.28;98328.03;4135367;28;20481;-71
2022/06/27 03:33:04;;;;;;;15.43;7.75;;;;;;;16.58;87.86;98335.63;4136483;28;20045;-71
2022/06/27 03:35:04;;;;;;;8.02;7.15;;;;;;;16.57;87.99;98341.63;4136550;28;20022;-71
2022/06/27 03:37:05;;;;;;;13.73;7.88;;;;;;;16.60;85.50;98321.22;4135879;28;20558;-71
2022/06/27 03:39:05;;;;;;;9.57;6.95;;;;;;;16.69;85.59;98315.16;4134171;28;20346;-71
2022/06/27 03:41:06;;;;;;;7.75;6.95;;;;;;;16.73;86.38;98318.69;4135151;28;20359;-71
2022/06/27 03:43:06;;;;;;;8.05;6.95;;;;;;;16.80;84.65;98327.75;4136104;28;20439;-71
2022/06/27 03:45:07;;;;;;;15.52;8.20;;;;;;;16.82;85.27;98327.31;4134815;28;20599;-71
2022/06/27 03:47:07;;;;;;;9.68;7.78;;;;;;;16.79;87.77;98339.31;4135300;28;20029;-71
2022/06/27 03:51:27;;;;;;;12.50;7.82;;;;;;;16.63;89.08;98341.94;4136871;28;20308;-71
2022/06/27 03:53:27;;;;;;;8.25;7.32;;;;;;;16.65;89.66;98345.13;4136992;28;20704;-71
2022/06/27 03:55:28;;;;;;;7.90;6.78;;;;;;;16.65;89.63;98340.31;4137381;28;20085;-71
2022/06/27 03:57:28;;;;;;;12.10;8.30;;;;;;;16.79;90.53;98347.72;4135321;28;20061;-71
2022/06/27 03:59:29;;;;;;;7.88;7.00;;;;;;;16.90;88.42;98341.97;4135137;28;20049;-71
2022/06/27 04:01:29;;;;;;;8.10;7.30;;;;;;;17.03;89.08;98342.94;4136232;28;20029;-71
2022/06/27 04:03:30;;;;;;;9.45;7.05;;;;;;;17.12;88.43;98343.19;4136262;28;20022;-71
2022/06/27 04:05:30;;;;;;;10.18;7.60;;;;;;;17.16;87.98;98341.13;4136890;28;20069;-71
2022/06/27 04:07:31;;;;;;;8.45;6.82;;;;;;;17.20;87.79;98333.47;4135649;28;20072;-71
2022/06/27 04:09:31;;;;;;;8.27;7.47;;;;;;;17.19;88.36;98339.47;4135311;28;20038;-71
2022/06/27 04:11:32;;;;;;;10.48;7.57;;;;;;;17.18;88.41;98335.91;4135674;28;20037;-70
2022/06/27 04:13:32;;;;;;;9.18;7.18;;;;;;;17.22;88.36;98335.84;4135043;28;20370;-71
2022/06/27 04:15:32;;;;;;;8.40;7.50;;;;;;;17.25;88.39;98340.59;4136684;28;20042;-71
2022/06/27 04:17:33;;;;;;;8.38;7.57;;;;;;;17.30;88.18;98340.88;4136313;28;20092;-71
2022/06/27 04:19:33;;;;;;;9.15;8.25;;;;;;;17.41;87.80;98337.91;4079606;28;20045;-71
2022/06/27 04:21:34;;;;;;;8.95;8.02;;;;;;;17.51;87.04;98333.31;4135845;28;20026;-71
2022/06/27 04:23:34;;;;;;;9.05;6.95;;;;;;;17.62;87.07;98323.50;4136273;28;20441;-71
2022/06/27 04:25:34;;;;;;;9.02;7.60;;;;;;;17.73;86.68;98326.13;4136493;28;20038;-71
2022/06/27 04:27:35;;;;;;;8.40;7.60;;;;;;;17.67;86.36;98316.63;4135325;28;20041;-71
2022/06/27 04:29:35;;;;;;;8.75;7.75;;;;;;;17.73;86.07;98317.75;4135751;28;20099;-71
2022/06/27 04:31:35;;;;;;;8.85;6.95;;;;;;;17.77;86.07;98326.06;4135655;28;20037;-71
2022/06/27 04:33:36;;;;;;;8.48;7.60;;;;;;;17.83;86.34;98327.94;4135513;28;20034;-71
2022/06/27 04:35:37;;;;;;;9.85;8.18;;;;;;;17.84;86.25;98331.50;4136623;28;20033;-71
2022/06/27 04:37:41;;;;;;;9.07;7.80;;;;;;;17.92;86.31;98330.16;4140046;28;20041;-71
2022/06/27 04:39:42;;;;;;;10.07;7.90;;;;;;;17.88;86.17;98312.66;4138757;28;20462;-71
2022/06/27 04:41:45;;;;;;;8.15;7.35;;;;;;;17.88;86.43;98315.44;4138110;28;20608;-71
2022/06/27 04:43:45;;;;;;;;;;;;;;;17.90;86.42;98311.00;4139598;28;20531;-71
2022/06/27 04:45:45;;;;;;;8.02;7.00;;;;;;;17.91;86.36;98311.78;4138593;28;19936;-71
2022/06/27 04:47:46;;;;;;;7.95;7.13;;;;;;;17.94;86.25;98310.91;4138953;28;20457;-71
2022/06/27 04:49:46;;;;;;;8.00;7.20;;;;;;;17.92;87.47;98297.34;4138447;28;20034;-71
2022/06/27 04:51:49;;;;;;;7.40;6.70;;;;;;;17.94;87.13;98303.28;4138874;28;20037;-71
2022/06/27 04:53:50;;;;;;;8.70;7.90;;;;;;;17.95;87.61;98288.06;4137427;28;20034;-71
2022/06/27 04:55:51;;;;;;;8.02;7.20;;;;;;;17.95;87.57;98288.06;4137173;28;20088;-71
2022/06/27 04:57:51;;;;;;;8.10;7.20;;;;;;;18.00;87.26;98294.41;4139421;28;20317;-71
2022/06/27 04:59:52;;;;;;;9.77;7.72;;;;;;;18.00;87.46;98286.78;4138462;28;20356;-71
2022/06/27 05:01:53;;;;;;;11.65;8.55;;;;;;;18.05;88.83;98293.91;4138268;28;20065;-71
2022/06/27 05:03:53;;;;;;;10.85;8.55;;;;;;;18.04;90.05;98287.53;4139070;28;20030;-71
2022/06/27 05:05:54;;;;;;;10.32;7.75;;;;;;;18.05;90.19;98277.13;4139304;28;20061;-71
2022/06/27 05:07:57;;;;;;;7.80;7.00;;;;;;;18.08;90.46;98270.63;4139001;28;20034;-71
2022/06/27 05:09:57;;;;;;;9.13;7.50;;;;;;;18.10;90.20;98268.97;4137943;28;20049;-71
2022/06/27 05:11:58;;;;;;;8.07;7.35;;;;;;;18.15;90.05;98254.47;4138194;28;20026;-72
2022/06/27 05:13:58;;;;;;;8.52;7.28;;;;;;;18.19;89.20;98249.56;4137004;28;20033;-72
2022/06/27 05:15:59;;;;;;;9.43;7.70;;;;;;;18.29;89.92;98250.56;4138744;28;20403;-71
2022/06/27 05:17:59;;;;;;;8.48;7.40;;;;;;;18.32;91.05;98257.31;4137062;28;20080;-71
2022/06/27 05:20:02;;;;;;;12.75;7.95;;;;;;;18.39;91.10;98257.16;4138249;28;20034;-71
2022/06/27 05:22:02;;;;;;;7.82;7.03;;;;;;;18.47;90.49;98250.16;4138115;28;20049;-71
2022/06/27 05:24:03;;;;;;;8.35;7.55;;;;;;;18.54;89.47;98261.19;4138426;28;20478;-72
2022/06/27 05:26:07;;;;;;;9.20;7.15;;;;;;;18.58;87.89;98263.88;4138499;28;20108;-71
2022/06/27 05:28:08;;;;;;;8.90;7.55;;;;;;;18.64;88.62;98262.16;4137440;28;20037;-71
2022/06/27 05:30:09;;;;;;;8.95;7.00;;;;;;;18.68;88.32;98255.25;4138226;28;20057;-71
2022/06/27 05:32:10;;;;;;;8.60;7.25;;;;;;;18.72;88.70;98260.78;4137580;28;20199;-71
2022/06/27 05:34:10;;;;;;;8.30;7.22;;;;;;;18.69;88.48;98258.84;4138707;28;20128;-71
2022/06/27 05:36:11;;;;;;;8.15;7.32;;;;;;;18.69;88.63;98258.84;4138566;28;20052;-71
2022/06/27 05:38:12;;;;;;;7.88;7.18;;;;;;;18.67;89.09;98259.28;4138151;28;20139;-71
2022/06/27 05:40:12;;;;;;;9.02;6.82;;;;;;;18.57;89.67;98256.72;4136229;28;20374;-71
2022/06/27 05:42:13;;;;;;;7.78;7.03;;;;;;;18.58;89.49;98259.06;4137474;28;20041;-71
2022/06/27 05:44:14;;;;;;;7.50;6.80;;;;;;;18.55;89.95;98257.16;4137861;28;20430;-71
2022/06/27 05:46:14;;;;;;;9.23;6.95;;;;;;;18.60;89.98;98272.63;4137470;28;20374;-71
2022/06/27 05:48:15;;;;;;;8.05;7.25;;;;;;;18.63;90.44;98274.59;4138059;28;20425;-71
2022/06/27 05:50:16;;;;;;;10.20;7.22;;;;;;;18.71;89.81;98292.84;4136713;28;20775;-71
2022/06/27 05:52:16;;;;;;;7.47;6.68;;;;;;;18.81;88.89;98294.59;4137837;28;20125;-71
2022/06/27 05:54:17;;;;;;;7.63;6.93;;;;;;;18.92;88.69;98295.09;4137479;28;20048;-71
2022/06/27 05:56:18;;;;;;;7.55;6.63;;;;;;;18.95;87.16;98288.63;4137498;28;20446;-71
2022/06/27 05:58:18;;;;;;;9.05;7.18;;;;;;;19.07;87.43;98276.69;4137175;28;20029;-71
2022/06/27 06:00:19;;;;;;;7.93;7.13;;;;;;;19.23;86.57;98275.09;4136710;28;20088;-71
2022/06/27 06:02:21;;;;;;;11.43;7.00;;;;;;;19.31;85.40;98279.28;4138064;28;20100;-71
2022/06/27 06:04:21;;;;;;;6.95;6.25;;;;;;;19.43;86.07;98295.38;4137515;28;20030;-71
2022/06/27 06:06:21;;;;;;;8.05;7.00;;;;;;;19.49;86.40;98290.03;4137222;28;20113;-71
2022/06/27 06:08:23;;;;;;;8.82;6.35;;;;;;;19.60;84.10;98294.13;4136701;28;20454;-71
2022/06/27 06:10:24;;;;;;;7.53;6.80;;;;;;;19.76;83.33;98298.13;4136970;28;20548;-71
2022/06/27 06:12:26;;;;;;;11.60;8.35;;;;;;;19.89;82.96;98290.53;4137365;28;20045;-71
2022/06/27 06:14:28;;;;;;;13.25;9.18;;;;;;;20.14;82.01;98284.19;4137361;28;20420;-71
2022/06/27 06:16:29;;;;;;;8.15;7.35;;;;;;;20.34;81.58;98286.78;4137399;28;20036;-71
2022/06/27 06:18:33;;;;;;;8.68;7.82;;;;;;;20.49;79.43;98279.50;4137696;28;20229;-71
2022/06/27 06:20:33;;;;;;;11.52;9.90;;;;;;;20.66;78.91;98283.78;4134989;28;20477;-71
2022/06/27 06:22:34;;;;;;;10.75;8.50;;;;;;;20.79;79.43;98286.59;4138271;28;20029;-71
2022/06/27 06:24:34;;;;;;;9.05;7.53;;;;;;;20.96;78.09;98306.94;4135903;28;20322;-71
2022/06/27 06:26:35;;;;;;;7.70;7.00;;;;;;;21.13;76.09;98297.09;4138157;28;20548;-71
2022/06/27 06:28:36;;;;;;;7.85;7.05;;;;;;;21.24;74.41;98291.88;4135487;28;20030;-72
2022/06/27 06:30:37;;;;;;;9.05;7.30;;;;;;;21.40;73.03;98290.97;4137511;28;20381;-71
2022/06/27 06:32:37;;;;;;;12.35;6.90;;;;;;;21.46;73.56;98283.53;4137444;28;20038;-71
2022/06/27 06:34:38;;;;;;;11.55;8.07;;;;;;;21.60;74.27;98282.25;4136846;28;20668;-71
2022/06/27 06:36:39;;;;;;;12.40;8.10;;;;;;;21.66;74.66;98300.09;4137352;28;20096;-71
2022/06/27 06:38:39;;;;;;;7.13;6.40;;;;;;;21.55;72.81;98305.34;4136730;28;20406;-71
2022/06/27 06:40:40;;;;;;;7.63;6.72;;;;;;;21.62;73.20;98298.69;4136105;28;20041;-71
2022/06/27 06:42:40;;;;;;;7.40;6.70;;;;;;;21.41;72.95;98292.53;4136580;28;20112;-71
2022/06/27 06:44:41;;;;;;;7.32;6.63;;;;;;;21.22;73.39;98300.00;4137669;28;20030;-71
2022/06/27 06:46:41;;;;;;;11.00;7.55;;;;;;;21.28;73.90;98303.84;4137927;28;20157;-71
2022/06/27 06:48:42;;;;;;;8.80;7.57;;;;;;;21.38;74.52;98301.91;4136329;28;20076;-71
2022/06/27 06:50:42;;;;;;;8.07;7.25;;;;;;;21.47;73.34;98304.81;4137043;28;20025;-71
2022/06/27 06:52:43;;;;;;;7.55;6.85;;;;;;;21.56;74.05;98313.31;4137844;28;20532;-71
2022/06/27 06:54:46;;;;;;;9.75;7.90;;;;;;;21.61;73.57;98314.78;4136814;28;20033;-71
2022/06/27 06:56:51;;;;;;;9.35;7.78;;;;;;;21.63;73.56;98323.56;4137182;28;20041;-71
2022/06/27 06:58:51;;;;;;;8.38;7.55;;;;;;;21.59;73.40;98329.28;4136266;28;20342;-71
2022/06/27 07:00:52;;;;;;;8.23;7.35;;;;;;;21.64;73.73;98327.94;4136404;28;20355;-71
2022/06/27 07:02:53;;;;;;;7.03;6.30;;;;;;;21.69;73.20;98335.81;4137530;28;20037;-71
2022/06/27 07:04:53;;;;;;;8.48;7.57;;;;;;;21.78;73.94;98335.88;4137338;28;20030;-71
2022/06/27 07:06:55;;;;;;;8.45;7.57;;;;;;;21.83;73.30;98331.69;4136905;28;20025;-71
2022/06/27 07:08:58;;;;;;;9.40;8.20;;;;;;;21.88;73.42;98325.47;4136317;28;20038;-71
2022/06/27 07:10:58;;;;;;;8.32;6.75;;;;;;;21.92;73.08;98334.56;4137646;28;20033;-71
2022/06/27 07:12:58;;;;;;;7.57;6.88;;;;;;;21.94;71.96;98334.13;4136025;28;20489;-71
2022/06/27 07:15:03;;;;;;;7.03;6.32;;;;;;;21.86;71.81;98337.19;4136542;28;20096;-71
2022/06/27 07:17:05;;;;;;;6.97;6.28;;;;;;;21.84;72.74;98345.28;4136338;28;20030;-72
2022/06/27 07:19:06;;;;;;;8.27;7.43;;;;;;;21.79;73.07;98351.53;4136006;28;20030;-71
2022/06/27 07:21:08;;;;;;;7.43;6.57;;;;;;;21.83;72.39;98351.38;4137422;28;20080;-72
2022/06/27 07:23:09;;;;;;;8.25;6.53;;;;;;;21.86;72.94;98348.47;4136691;28;20036;-72
2022/06/27 07:25:09;;;;;;;8.18;7.38;;;;;;;21.99;72.44;98356.84;4137357;28;20030;-71
2022/06/27 07:27:11;;;;;;;7.10;6.40;;;;;;;22.12;71.69;98354.00;4136612;28;20033;-71
2022/06/27 07:29:11;;;;;;;7.17;6.47;;;;;;;22.23;71.07;98340.28;4134236;28;20033;-71
2022/06/27 07:31:13;;;;;;;7.57;6.15;;;;;;;22.38;71.58;98343.34;4136700;28;20367;-72
2022/06/27 07:33:13;;;;;;;7.18;6.22;;;;;;;22.47;69.63;98343.41;4136729;28;20030;-72
2022/06/27 07:35:16;;;;;;;7.28;6.63;;;;;;;22.48;69.03;98341.38;4134703;28;20029;-72
2022/06/27 07:37:16;;;;;;;8.40;7.28;;;;;;;22.55;68.68;98341.09;4136612;28;20036;-72
2022/06/27 07:39:17;;;;;;;8.15;6.30;;;;;;;22.64;67.89;98338.31;4136006;28;20034;-71
2022/06/27 07:41:22;;;;;;;6.80;6.15;;;;;;;22.74;67.58;98350.41;4137681;28;20069;-72
2022/06/27 07:43:22;;;;;;;7.47;6.63;;;;;;;22.83;67.64;98353.28;4135403;28;20037;-71
2022/06/27 07:45:24;;;;;;;8.02;7.18;;;;;;;22.90;67.79;98351.00;4136567;28;20451;-72
2022/06/27 07:47:24;;;;;;;7.10;6.40;;;;;;;23.04;67.04;98358.09;4134718;28;20030;-72
2022/06/27 07:49:25;;;;;;;7.72;6.72;;;;;;;23.15;66.33;98352.78;4136862;28;20882;-71
2022/06/27 07:51:27;;;;;;;8.13;6.97;;;;;;;23.17;66.07;98343.84;4136416;28;20113;-72
2022/06/27 07:53:28;;;;;;;7.85;6.50;;;;;;;23.19;65.81;98344.19;4136686;28;20042;-72
2022/06/27 07:55:28;;;;;;;7.20;6.22;;;;;;;23.03;65.37;98347.28;4135723;28;20022;-72
2022/06/27 07:57:29;;;;;;;6.95;6.35;;;;;;;23.12;64.92;98338.84;4135993;28;20034;-72
2022/06/27 07:59:29;;;;;;;7.05;5.82;;;;;;;23.16;64.65;98347.94;4136488;28;20026;-72
2022/06/27 08:01:30;;;;;;;7.13;6.43;;;;;;;23.20;64.78;98342.94;4136021;28;20065;-71
2022/06/27 08:03:39;;;;;;;7.45;6.80;;;;;;;23.22;64.76;98332.75;4136535;28;20368;-71
2022/06/27 08:05:39;;;;;;;7.47;6.78;;;;;;;23.34;64.72;98333.88;4136724;28;20375;-72
2022/06/27 08:07:40;;;;;;;9.48;6.22;;;;;;;23.45;65.11;98331.38;4136887;28;20032;-72
2022/06/27 08:09:42;;;;;;;6.20;5.60;;;;;;;23.51;63.96;98323.88;4135420;28;20038;-72
2022/06/27 08:11:43;;;;;;;6.88;6.00;;;;;;;23.57;63.80;98335.31;4137833;28;20026;-72
2022/06/27 08:13:45;;;;;;;7.10;6.18;;;;;;;23.74;63.88;98336.59;4140050;28;20133;-72
2022/06/27 08:15:47;;;;;;;6.53;5.95;;;;;;;23.93;63.67;98340.22;4139645;28;20133;-72
2022/06/27 08:17:48;;;;;;;6.35;5.85;;;;;;;23.93;62.48;98350.75;4139134;28;20195;-72
2022/06/27 08:19:49;;;;;;;6.07;5.50;;;;;;;23.81;61.93;98346.81;4138450;28;20029;-72
2022/06/27 08:21:49;;;;;;;6.28;5.75;;;;;;;23.86;62.65;98346.19;4140011;28;20084;-72
2022/06/27 08:23:51;;;;;;;6.10;5.60;;;;;;;23.96;62.63;98347.75;4138435;28;20044;-72
2022/06/27 08:25:51;;;;;;;5.95;5.35;;;;;;;24.03;62.06;98347.44;4139760;28;20034;-72
2022/06/27 08:27:53;;;;;;;6.35;5.78;;;;;;;24.10;61.79;98346.31;4139440;28;20470;-72
2022/06/27 08:29:53;;;;;;;6.32;5.82;;;;;;;24.15;60.71;98353.38;4138599;28;20407;-72
2022/06/27 08:31:53;;;;;;;7.30;6.05;;;;;;;24.08;60.39;98355.28;4139309;28;20104;-72
2022/06/27 08:34:04;;;;;;;6.82;6.22;;;;;;;24.11;61.06;98359.19;4138064;28;20057;-72
2022/06/27 08:36:04;;;;;;;6.70;5.95;;;;;;;24.25;61.81;98361.38;4139595;28;20026;-72
2022/06/27 08:38:05;;;;;;;6.55;5.95;;;;;;;24.33;60.60;98365.50;4138323;28;20052;-72
2022/06/27 08:40:06;;;;;;;6.65;5.95;;;;;;;24.50;59.61;98370.78;4139522;28;20025;-72
2022/06/27 08:42:07;;;;;;;6.20;5.63;;;;;;;24.52;59.32;98382.41;4138663;28;20141;-72
2022/06/27 08:44:09;;;;;;;8.93;6.00;;;;;;;24.59;59.30;98382.09;4137763;28;20057;-72
2022/06/27 08:46:15;;;;;;;6.38;5.88;;;;;;;24.64;59.25;98379.38;4139675;28;20069;-72
2022/06/27 08:48:16;;;;;;;7.90;6.45;;;;;;;24.74;59.08;98377.31;4138444;28;20037;-72
2022/06/27 08:50:17;;;;;;;20.35;12.23;;;;;;;24.68;59.23;98386.94;4138764;28;20030;-72
2022/06/27 08:52:19;;;;;;;84.55;39.15;;;;;;;24.83;59.26;98380.13;4138581;28;20525;-72
2022/06/27 08:54:20;;;;;;;34.00;18.35;;;;;;;25.04;59.34;98383.19;4138770;28;20029;-72
2022/06/27 08:56:22;;;;;;;9.40;6.38;;;;;;;25.17;58.24;98380.94;4138860;28;20504;-72
2022/06/27 08:58:23;;;;;;;6.13;5.63;;;;;;;25.31;57.51;98382.28;4138680;28;20427;-72
2022/06/27 09:00:24;;;;;;;6.10;5.50;;;;;;;25.39;56.78;98386.31;4137851;28;20061;-72
2022/06/27 09:02:26;;;;;;;6.50;5.90;;;;;;;25.50;57.00;98386.59;4138969;28;20049;-72
2022/06/27 09:04:26;;;;;;;5.87;5.23;;;;;;;25.64;57.71;98377.34;4139401;28;20494;-72
2022/06/27 09:06:29;;;;;;;6.65;5.65;;;;;;;25.81;57.65;98385.44;4138408;28;20338;-72
2022/06/27 09:08:33;;;;;;;6.38;5.88;;;;;;;26.05;56.27;98381.31;4138125;28;20458;-72
2022/06/27 09:10:35;;;;;;;5.78;5.38;;;;;;;26.30;56.79;98379.97;4138054;28;20025;-72
2022/06/27 09:12:53;;;;;;;6.85;5.80;;;;;;;26.11;54.53;98372.91;4138183;28;20377;-72
2022/06/27 09:14:53;;;;;;;5.55;5.15;;;;;;;26.33;54.69;98384.69;4138241;28;20030;-72
2022/06/27 09:17:04;;;;;;;5.43;5.03;;;;;;;26.50;53.74;98378.56;4139170;28;20026;-72
2022/06/27 09:19:04;;;;;;;6.30;5.70;;;;;;;26.65;53.22;98376.53;4136607;28;20037;-72
2022/06/27 09:21:09;;;;;;;6.20;5.70;;;;;;;26.53;52.18;98367.00;4138056;28;20032;-72
2022/06/27 09:23:26;;;;;;;5.88;5.28;;;;;;;26.78;52.47;98379.03;4138229;28;20030;-72
2022/06/27 09:25:26;;;;;;;5.05;4.57;;;;;;;26.65;50.87;98368.00;4138447;28;20071;-72
2022/06/27 09:27:37;;;;;;;6.00;4.40;;;;;;;26.71;49.79;98368.88;4137503;28;20501;-72
2022/06/27 09:29:37;;;;;;;7.82;4.30;;;;;;;26.79;49.65;98350.16;4137551;28;20025;-72
2022/06/27 09:31:42;;;;;;;4.93;4.45;;;;;;;26.92;51.02;98354.75;4138755;28;20033;-72